Warning: Javascript must be enabled to use all the features on this page!


Page Loading - Please Wait...

Click to hideNews Bulletins

Peak Streamflow for the Nation

USGS 03092090 West Branch Mahoning River near Ravenna OH

Portage County, Ohio
Hydrologic Unit Code 05030103
Latitude  41°09'41", Longitude  81°11'50" NAD27
Drainage area 21.8  square miles
Contributing drainage area 21.8  square miles
Gage datum 1,011.17 feet above NAVD88
Output formats
Table
Graph
Tab-separated file
peakfq (watstore) format
Reselect output format
Water
Year
Date Gage
Height
(feet)
Stream-
flow
(cfs)
1966 1966-02-11 6.03 755
1967 1967-05-11 4.85 365
1968 1968-01-30 6.422 746
1969 1968-12-28 7.67 1,460
1970 1970-01-29 5.97 621
1971 1971-02-19 5.75 558
1972 1972-04-15 8.81 2,090
1973 1973-03-15 6.54 816
1974 1974-01-19 7.47 1,220
1975 1975-02-24 6.39 906
1976 1976-07-11 7.91 1,500
1977 1977-03-18 5.31 568
1978 1977-12-14 6.73 1,030
1979 1979-09-14 9.34 2,810
1980 1979-12-25 6.34 1,050
1981 1981-02-19 6.16 975
1982 1982-02-01 5.85 854
1983 1983-04-10 4.73 494
1984 1984-05-12 5.91 876
1985 1985-03-29 6.89 1,300
1986 1985-11-05 5.30 664
1987 1987-07-02 5.28 658
1988 1988-09-04 5.32 671
1989 1989-06-14 6.79 1,250
1990 1990-02-15 6.21 995
1991 1990-12-30 6.94 1,320
1992 1992-07-30 7.00 1,450
1993 1992-12-31 7.21 1,450
1994 1994-04-12 6.40 1,080
1995 1995-01-16 5.49 727
1996 1996-05-11 6.71 1,260
1997 1997-06-01 5.52 847
1998 1998-04-16 5.76 932
1999 1999-01-23 5.15 723
2000 2000-05-19 4.78 668
2001 2001-04-07 5.51 908
2002 2002-05-02 5.25 821
2003 2003-07-22 10.76 4,810
2004 2004-05-22 7.98 1,800
2005 2005-08-31 5.38 728
2006 2006-07-05 5.35 717
2007 2006-12-01 4.90 568
?
  Peak Gage-Height Qualification Codes.